KEGE/EGE METAR and TAF weather

Enter ICAO airport designator
Station Type Date Time Source
KEGE METAR 2019/08/22 15:56 UTC NOAA

KEGE 221556Z 00000KT 10SM CLR 22/03 A3016 RMK AO2 SLP140 T02220033


Station Type Date Time Source
KEGE Decoded METAR 2019/08/22 15:56 UTC NOAA

Station name not available
Aug 22, 2019 - 11:56 AM EDT / 2019.08.22 1556 UTC
Wind: Calm:0
Visibility: 10 mile(s):0
Sky conditions: clear
Temperature: 72.0 F (22.2 C)
Dew Point: 37.9 F (3.3 C)
Relative Humidity: 28%
Pressure (altimeter): 30.16 in. Hg (1021 hPa)
ob: KEGE 221556Z 00000KT 10SM CLR 22/03 A3016 RMK AO2 SLP140 T02220033
cycle: 16

Station Type Date Time Source
KEGE TAF 2019/08/22 12:24 UTC NOAA

TAF KEGE 221121Z 2212/2312 09006KT P6SM FEW200
FM221900 25011G20KT P6SM SCT120 BKN200
FM230300 18005KT P6SM SCT120 BKN200
FM230600 VRB03KT P6SM SCT200

Example: see airport list